Terminal Aerodrome Forecast
Issued by NWS

Home | Current Version | Previous Version | Text Only | Print | Product List | Glossary On
Versions: 1 2 3 4 5 6 7 8 9 10 11 12 13 14 15 16 17 18
487
FTUS42 TJSJ 010552
TAFJBQ
TAF
TJBQ 010552Z 0106/0206 00000KT P6SM SCT040 BKN090
      TEMPO 0112/0115 4SM RA BKN025
     FM011500 06011KT P6SM SCT025
      TEMPO 0115/0118 4SM RA BKN025
     FM012100 10004KT P6SM BKN050
      AMD NOT SKED TIL 011100=

USA.gov is the U.S. government's official web portal to all federal, state and local government web resources and services.